Time;durP1;ratioP1;P1;durP2;ratioP2;P2;SDS_P1;SDS_P2;PMS_P1;PMS_P2;Temp;Humidity;BMP_temperature;BMP_pressure;BME280_temperature;BME280_humidity;BME280_pressure;Samples;Min_cycle;Max_cycle;Signal;HPM_P1;HPM_P2
2022/03/14 00:01:07;;;;;;;5.68;1.63;;;23.10;99.90;;;;;;4916371;29;20038;-68
2022/03/14 00:03:58;;;;;;;4.95;1.50;;;23.30;99.90;;;;;;4899131;29;20103;-68
2022/03/14 00:06:23;;;;;;;7.38;1.67;;;23.50;99.90;;;;;;4915458;29;20469;-68
2022/03/14 00:08:54;;;;;;;8.23;2.40;;;23.70;99.90;;;;;;4915489;29;20034;-72
2022/03/14 00:11:23;;;;;;;4.78;1.25;;;23.90;99.90;;;;;;4916234;29;20031;-74
2022/03/14 00:13:50;;;;;;;4.53;1.15;;;23.90;99.90;;;;;;4915797;29;20020;-68
2022/03/14 00:16:25;;;;;;;7.30;1.20;;;23.90;99.90;;;;;;4916046;29;20072;-69
2022/03/14 00:18:55;;;;;;;4.15;1.20;;;23.80;99.90;;;;;;4915686;29;20030;-68
2022/03/14 00:21:23;;;;;;;6.72;1.30;;;23.70;99.90;;;;;;4913761;29;20035;-71
2022/03/14 00:23:52;;;;;;;5.82;1.10;;;23.60;99.90;;;;;;4913730;29;20035;-69
2022/03/14 00:26:21;;;;;;;7.03;1.48;;;23.60;99.90;;;;;;4915116;29;20481;-70
2022/03/14 00:28:50;;;;;;;6.70;1.10;;;23.60;99.90;;;;;;4915037;29;20031;-72
2022/03/14 00:31:17;;;;;;;8.00;1.58;;;23.60;99.90;;;;;;4898521;29;20123;-69
2022/03/14 00:33:44;;;;;;;6.10;1.02;;;23.60;99.90;;;;;;4915673;29;20127;-71
2022/03/14 00:36:12;;;;;;;4.18;0.60;;;23.60;99.90;;;;;;4915657;29;20024;-72
2022/03/14 00:38:40;;;;;;;3.88;0.70;;;23.70;99.90;;;;;;4914176;29;20031;-68
2022/03/14 00:41:09;;;;;;;5.55;0.80;;;23.80;99.90;;;;;;4914037;29;20036;-68
2022/03/14 00:43:37;;;;;;;5.07;0.82;;;23.70;99.90;;;;;;4913202;29;20025;-70
2022/03/14 00:46:05;;;;;;;5.45;0.65;;;23.60;99.90;;;;;;4912316;29;20408;-68
2022/03/14 00:48:34;;;;;;;4.53;1.23;;;23.60;99.90;;;;;;4895296;29;20478;-70
2022/03/14 00:51:03;;;;;;;3.95;1.00;;;23.50;99.90;;;;;;4912548;29;20035;-73
2022/03/14 00:53:34;;;;;;;3.85;0.75;;;23.50;99.90;;;;;;4913054;29;20493;-71
2022/03/14 00:56:02;;;;;;;10.27;0.90;;;23.50;99.90;;;;;;4914425;29;20039;-69
2022/03/14 00:58:29;;;;;;;5.35;1.10;;;23.70;99.90;;;;;;4914734;29;20039;-71
2022/03/14 01:00:57;;;;;;;6.32;1.10;;;23.90;99.90;;;;;;4915704;29;20020;-72
2022/03/14 01:03:24;;;;;;;6.18;0.80;;;24.00;99.90;;;;;;4915621;29;20103;-71
2022/03/14 01:05:51;;;;;;;7.03;1.00;;;24.10;99.90;;;;;;4915421;29;20042;-69
2022/03/14 01:08:18;;;;;;;4.22;0.70;;;24.50;99.90;;;;;;4915232;29;20020;-71
2022/03/14 01:10:48;;;;;;;4.38;0.73;;;24.60;99.90;;;;;;4915522;29;20078;-73
2022/03/14 01:13:15;;;;;;;3.83;0.88;;;24.70;99.90;;;;;;4915395;29;20060;-71
2022/03/14 01:15:43;;;;;;;5.65;1.48;;;24.90;99.90;;;;;;4915525;29;20031;-71
2022/03/14 01:18:10;;;;;;;4.30;0.85;;;25.00;99.90;;;;;;4898373;29;20047;-70
2022/03/14 01:20:38;;;;;;;4.80;0.80;;;25.10;99.90;;;;;;4917197;29;20016;-70
2022/03/14 01:23:05;;;;;;;5.30;0.50;;;25.00;99.90;;;;;;4919119;29;20435;-71
2022/03/14 01:25:32;;;;;;;3.63;0.57;;;25.00;99.90;;;;;;4919133;29;20031;-69
2022/03/14 01:28:00;;;;;;;2.85;0.50;;;25.00;99.90;;;;;;4918945;29;20030;-71
2022/03/14 01:30:27;;;;;;;4.40;0.65;;;24.80;99.90;;;;;;4919104;29;20104;-68
2022/03/14 01:32:54;;;;;;;2.92;0.63;;;24.80;99.90;;;;;;4918886;29;20047;-70
2022/03/14 01:35:22;;;;;;;3.63;0.63;;;25.00;99.90;;;;;;4918832;29;20083;-70
2022/03/14 01:37:49;;;;;;;4.07;0.57;;;25.00;99.90;;;;;;4918942;29;20028;-72
2022/03/14 01:40:17;;;;;;;1.13;0.40;;;25.20;99.90;;;;;;4918870;29;20028;-71
2022/03/14 01:42:45;;;;;;;2.20;0.40;;;25.40;99.90;;;;;;4918680;29;20039;-71
2022/03/14 01:45:15;;;;;;;5.35;0.80;;;25.30;99.90;;;;;;4918549;29;20134;-69
2022/03/14 01:47:44;;;;;;;4.90;0.55;;;25.10;99.90;;;;;;4918639;29;20032;-71
2022/03/14 01:50:12;;;;;;;3.30;0.55;;;24.90;99.90;;;;;;4918526;29;20035;-70
2022/03/14 01:52:40;;;;;;;3.03;0.50;;;24.90;99.90;;;;;;4918861;29;20397;-71
2022/03/14 01:55:09;;;;;;;4.20;0.50;;;24.90;99.90;;;;;;4918441;29;20035;-74
2022/03/14 01:57:36;;;;;;;5.90;0.73;;;25.00;99.90;;;;;;4901666;29;20425;-70
2022/03/14 02:00:07;;;;;;;5.05;0.93;;;25.00;99.90;;;;;;4918208;29;20031;-70
2022/03/14 02:02:35;;;;;;;7.07;1.20;;;24.90;99.90;;;;;;4918423;29;20032;-69
2022/03/14 02:05:02;;;;;;;7.05;1.10;;;24.90;99.90;;;;;;4918565;29;20083;-72
2022/03/14 02:07:31;;;;;;;3.20;0.70;;;24.90;99.90;;;;;;4918224;29;20032;-74
2022/03/14 02:09:58;;;;;;;2.97;0.57;;;24.80;99.90;;;;;;4918195;29;20114;-73
2022/03/14 02:12:26;;;;;;;4.20;0.65;;;24.70;99.90;;;;;;4917566;29;20035;-70
2022/03/14 02:14:53;;;;;;;1.67;0.45;;;24.60;99.90;;;;;;4901013;29;20032;-70
2022/03/14 02:17:20;;;;;;;2.42;0.65;;;24.60;99.90;;;;;;4918403;29;20032;-71
2022/03/14 02:19:48;;;;;;;5.22;1.00;;;24.50;99.90;;;;;;4918066;29;20385;-72
2022/03/14 02:22:16;;;;;;;7.93;1.65;;;24.40;99.90;;;;;;4918144;29;20164;-71
2022/03/14 02:24:45;;;;;;;3.95;0.98;;;24.30;99.90;;;;;;4918088;29;20025;-70
2022/03/14 02:27:14;;;;;;;4.90;1.85;;;24.20;99.90;;;;;;4918260;29;20390;-71
2022/03/14 02:29:42;;;;;;;3.22;0.90;;;24.10;99.90;;;;;;4918185;29;20051;-76
2022/03/14 02:32:12;;;;;;;5.38;1.00;;;23.80;99.90;;;;;;4917474;29;20052;-70
2022/03/14 02:34:40;;;;;;;3.72;0.93;;;23.60;99.90;;;;;;4917981;29;20485;-72
2022/03/14 02:37:08;;;;;;;6.22;1.10;;;23.50;99.90;;;;;;4917753;29;20028;-76
2022/03/14 02:39:37;;;;;;;5.80;1.02;;;23.50;99.90;;;;;;4918100;29;20079;-74
2022/03/14 02:42:06;;;;;;;4.25;1.92;;;23.40;99.90;;;;;;4917501;29;20445;-69
2022/03/14 02:44:34;;;;;;;2.63;0.80;;;23.30;99.90;;;;;;4917281;29;20028;-71
2022/03/14 02:47:04;;;;;;;4.35;0.90;;;23.00;99.90;;;;;;4917728;29;20119;-71
2022/03/14 02:49:32;;;;;;;4.38;1.10;;;22.80;99.90;;;;;;4917651;29;20016;-70
2022/03/14 02:51:59;;;;;;;6.53;1.60;;;22.70;99.90;;;;;;4900584;29;20031;-70
2022/03/14 02:54:27;;;;;;;5.43;1.42;;;22.50;99.90;;;;;;4917692;29;20024;-68
2022/03/14 02:56:54;;;;;;;6.15;1.75;;;22.20;99.90;;;;;;4917658;29;20512;-70
2022/03/14 02:59:22;;;;;;;8.20;1.27;;;21.90;99.90;;;;;;4917781;29;20075;-70
2022/03/14 03:01:50;;;;;;;14.48;2.38;;;21.80;99.90;;;;;;4917637;29;20060;-70
2022/03/14 03:04:17;;;;;;;5.65;1.25;;;21.70;99.90;;;;;;4917325;29;20020;-70
2022/03/14 03:06:45;;;;;;;6.55;1.58;;;21.30;99.90;;;;;;4917427;29;20042;-69
2022/03/14 03:09:13;;;;;;;5.85;1.10;;;21.10;99.90;;;;;;4917478;29;20024;-69
2022/03/14 03:11:40;;;;;;;7.28;0.93;;;20.80;99.90;;;;;;4917075;29;20028;-69
2022/03/14 03:14:09;;;;;;;5.63;1.40;;;20.70;99.90;;;;;;4916876;29;20024;-69
2022/03/14 03:16:37;;;;;;;5.78;1.05;;;20.60;99.90;;;;;;4917148;29;20079;-69
2022/03/14 03:19:06;;;;;;;6.82;1.10;;;20.70;99.90;;;;;;4917015;29;20024;-69
2022/03/14 03:21:39;;;;;;;6.72;1.00;;;20.70;99.90;;;;;;4917274;29;20536;-70
2022/03/14 03:24:08;;;;;;;5.90;0.93;;;20.60;99.90;;;;;;4917138;29;20027;-70
2022/03/14 03:26:39;;;;;;;9.00;1.35;;;20.60;99.90;;;;;;4916973;29;20060;-69
2022/03/14 03:29:10;;;;;;;5.82;1.23;;;20.70;99.90;;;;;;4916900;29;20024;-68
2022/03/14 03:31:38;;;;;;;6.30;1.17;;;20.60;99.90;;;;;;4917180;29;20504;-69
2022/03/14 03:34:06;;;;;;;4.20;0.60;;;20.70;99.90;;;;;;4916907;29;20055;-69
2022/03/14 03:36:33;;;;;;;4.20;0.80;;;20.70;99.90;;;;;;4899968;29;20075;-70
2022/03/14 03:39:01;;;;;;;6.55;1.60;;;20.80;99.90;;;;;;4916627;29;20020;-69
2022/03/14 03:41:28;;;;;;;7.63;1.30;;;20.70;99.90;;;;;;4916926;29;20485;-68
2022/03/14 03:43:55;;;;;;;3.92;0.88;;;20.90;99.90;;;;;;4916366;29;20076;-68
2022/03/14 03:46:23;;;;;;;5.45;1.13;;;21.00;99.90;;;;;;4916468;29;20032;-70
2022/03/14 03:48:50;;;;;;;4.63;0.90;;;21.10;99.90;;;;;;4916007;29;20021;-69
2022/03/14 03:51:17;;;;;;;8.82;1.10;;;21.30;99.90;;;;;;4916406;29;20110;-69
2022/03/14 03:53:44;;;;;;;5.07;0.90;;;21.40;99.90;;;;;;4916230;29;20024;-67
2022/03/14 03:56:11;;;;;;;6.50;1.60;;;21.50;99.90;;;;;;4916395;29;20031;-67
2022/03/14 03:58:39;;;;;;;4.15;0.90;;;21.60;99.90;;;;;;4916494;29;20453;-69
2022/03/14 04:01:07;;;;;;;3.80;1.30;;;21.70;99.90;;;;;;4916512;29;20028;-69
2022/03/14 04:03:35;;;;;;;3.70;1.15;;;21.70;99.90;;;;;;4916620;29;20024;-68
2022/03/14 04:06:03;;;;;;;3.65;0.75;;;21.70;99.90;;;;;;4916018;29;20036;-68
2022/03/14 04:08:30;;;;;;;7.72;1.27;;;21.80;99.90;;;;;;4916177;29;20028;-69
2022/03/14 04:10:58;;;;;;;5.55;1.60;;;21.90;99.90;;;;;;4922223;29;20067;-67
2022/03/14 04:13:28;;;;;;;4.97;1.20;;;22.00;99.90;;;;;;4928082;29;20028;-73
2022/03/14 04:15:57;;;;;;;6.93;1.00;;;22.10;99.90;;;;;;4917627;29;20028;-71
2022/03/14 04:18:25;;;;;;;7.85;2.25;;;22.10;99.90;;;;;;4926272;29;20019;-72
2022/03/14 04:20:53;;;;;;;7.97;1.42;;;22.30;99.90;;;;;;4915775;29;20379;-71
2022/03/14 04:23:21;;;;;;;9.18;1.75;;;22.50;99.90;;;;;;4926533;29;20568;-71
2022/03/14 04:25:48;;;;;;;7.47;1.60;;;22.90;99.90;;;;;;4926586;29;20147;-73
2022/03/14 04:28:16;;;;;;;7.03;1.33;;;23.20;99.90;;;;;;4933465;29;20023;-70
2022/03/14 04:30:44;;;;;;;10.32;2.53;;;23.40;99.90;;;;;;4923130;29;20087;-73
2022/03/14 04:33:13;;;;;;;6.57;1.20;;;23.70;99.90;;;;;;4933684;29;20040;-73
2022/03/14 04:35:41;;;;;;;7.55;1.40;;;24.00;99.90;;;;;;4916089;29;20023;-70
2022/03/14 04:38:08;;;;;;;6.65;1.08;;;24.30;99.90;;;;;;4938971;29;20502;-73
2022/03/14 04:40:36;;;;;;;7.03;0.90;;;24.50;99.90;;;;;;4951646;29;20102;-74
2022/03/14 04:43:05;;;;;;;6.97;1.73;;;24.50;99.90;;;;;;4937418;29;20023;-71
2022/03/14 04:45:34;;;;;;;5.78;1.02;;;24.60;99.90;;;;;;4933887;29;20028;-75
2022/03/14 04:48:02;;;;;;;8.70;1.10;;;24.80;99.90;;;;;;4933802;29;20020;-69
2022/03/14 04:50:29;;;;;;;7.45;1.00;;;24.90;99.90;;;;;;4933528;29;20028;-68
2022/03/14 04:52:57;;;;;;;8.30;1.35;;;24.80;99.90;;;;;;4929839;29;20028;-70
2022/03/14 04:55:25;;;;;;;6.07;1.08;;;24.80;99.90;;;;;;4901253;29;20032;-73
2022/03/14 04:57:53;;;;;;;6.78;1.30;;;24.70;99.90;;;;;;4917394;29;20024;-74
2022/03/14 05:00:22;;;;;;;5.22;1.38;;;24.60;99.90;;;;;;4900975;29;20038;-76
2022/03/14 05:02:50;;;;;;;8.48;0.93;;;24.50;99.90;;;;;;4929453;29;20114;-75
2022/03/14 05:05:17;;;;;;;6.68;0.90;;;24.40;99.90;;;;;;4936416;29;20023;-71
2022/03/14 05:07:45;;;;;;;6.22;0.98;;;24.20;99.90;;;;;;4933366;29;20027;-74
2022/03/14 05:10:12;;;;;;;5.50;1.10;;;24.20;99.90;;;;;;4900384;29;20020;-71
2022/03/14 05:12:39;;;;;;;6.90;1.10;;;24.90;99.90;;;;;;4928312;29;20059;-72
2022/03/14 05:15:07;;;;;;;6.30;0.80;;;25.50;99.90;;;;;;4937834;29;20034;-73
2022/03/14 05:17:35;;;;;;;12.27;1.38;;;25.70;99.90;;;;;;4937123;29;20121;-70
2022/03/14 05:20:03;;;;;;;5.22;0.90;;;25.70;99.90;;;;;;4937442;29;20051;-70
2022/03/14 05:22:31;;;;;;;6.57;1.50;;;25.50;99.90;;;;;;4936778;29;20020;-74
2022/03/14 05:24:58;;;;;;;6.57;1.20;;;25.40;99.90;;;;;;4936413;29;20035;-69
2022/03/14 05:27:26;;;;;;;4.95;1.42;;;25.30;99.90;;;;;;4937354;29;20062;-72
2022/03/14 05:29:53;;;;;;;4.97;1.10;;;25.10;99.90;;;;;;4936996;29;20036;-69
2022/03/14 05:32:21;;;;;;;7.72;1.35;;;24.90;99.90;;;;;;4919777;29;20048;-70
2022/03/14 05:34:48;;;;;;;5.55;0.82;;;24.80;99.90;;;;;;4934947;29;20028;-65
2022/03/14 05:37:17;;;;;;;7.10;0.90;;;24.60;99.90;;;;;;4936532;29;20027;-72
2022/03/14 05:39:45;;;;;;;5.82;1.05;;;24.40;99.90;;;;;;4924626;29;20039;-68
2022/03/14 05:42:13;;;;;;;5.45;0.80;;;24.30;99.90;;;;;;4915990;29;20027;-73
2022/03/14 05:44:44;;;;;;;17.33;7.68;;;24.20;99.90;;;;;;4931828;29;20043;-71
2022/03/14 05:47:15;;;;;;;3.92;0.68;;;24.20;99.90;;;;;;4931828;29;20496;-72
2022/03/14 05:49:43;;;;;;;5.25;1.35;;;24.20;99.90;;;;;;4918421;29;20024;-77
2022/03/14 05:52:35;;;;;;;7.65;1.35;;;24.30;99.90;;;;;;4934714;29;20028;-75
2022/03/14 05:55:08;;;;;;;6.63;1.25;;;24.40;99.90;;;;;;4930372;29;20118;-76
2022/03/14 05:57:36;;;;;;;7.15;1.42;;;24.50;99.90;;;;;;4921976;29;20024;-70
2022/03/14 06:00:06;;;;;;;6.05;1.27;;;24.50;99.90;;;;;;4916521;29;20545;-75
2022/03/14 06:02:35;;;;;;;6.95;1.55;;;24.40;99.90;;;;;;4902527;29;20115;-76
2022/03/14 06:05:02;;;;;;;8.77;1.08;;;24.40;99.90;;;;;;4904923;29;20047;-71
2022/03/14 06:07:30;;;;;;;4.80;1.17;;;24.30;99.90;;;;;;4927613;29;20059;-74
2022/03/14 06:09:58;;;;;;;5.28;1.10;;;24.30;99.90;;;;;;4926689;29;20108;-73
2022/03/14 06:12:27;;;;;;;5.40;0.90;;;24.20;99.90;;;;;;4922988;29;20027;-74
2022/03/14 06:14:56;;;;;;;5.28;0.90;;;24.20;99.90;;;;;;4936090;29;20369;-73
2022/03/14 06:17:24;;;;;;;4.53;1.05;;;24.00;99.90;;;;;;4935548;29;20384;-79
2022/03/14 06:19:53;;;;;;;7.18;2.50;;;23.90;99.90;;;;;;4936124;29;20055;-75
2022/03/14 06:22:22;;;;;;;5.93;1.10;;;23.90;99.90;;;;;;4935890;29;20070;-71
2022/03/14 06:24:50;;;;;;;5.32;0.70;;;23.80;99.90;;;;;;4919206;29;20032;-72
2022/03/14 06:27:22;;;;;;;9.10;1.63;;;23.80;99.90;;;;;;4935618;29;20042;-72
2022/03/14 06:29:50;;;;;;;7.32;0.80;;;23.80;99.90;;;;;;4936019;29;20149;-67
2022/03/14 06:32:17;;;;;;;9.75;1.13;;;23.90;99.90;;;;;;4930756;29;20397;-72
2022/03/14 06:34:45;;;;;;;7.60;1.00;;;23.90;99.90;;;;;;4916769;29;20544;-73
2022/03/14 06:37:12;;;;;;;6.63;1.20;;;23.90;99.90;;;;;;4922158;29;20024;-68
2022/03/14 06:39:40;;;;;;;4.22;0.63;;;24.00;99.90;;;;;;4918784;29;20090;-69
2022/03/14 06:42:13;;;;;;;7.07;0.90;;;24.00;99.90;;;;;;4935087;29;20055;-72
2022/03/14 06:44:41;;;;;;;8.43;0.93;;;24.00;99.90;;;;;;4934105;29;20031;-69
2022/03/14 06:47:10;;;;;;;6.68;1.10;;;24.00;99.90;;;;;;4928075;29;20060;-71
2022/03/14 06:49:42;;;;;;;7.32;1.27;;;24.30;99.90;;;;;;4934642;29;20532;-65
2022/03/14 06:52:09;;;;;;;10.27;1.20;;;24.80;99.90;;;;;;4921440;29;20077;-68
2022/03/14 06:54:38;;;;;;;6.10;1.17;;;25.40;99.90;;;;;;4943660;29;20027;-72
2022/03/14 06:57:09;;;;;;;5.55;0.90;;;25.70;99.90;;;;;;4933044;29;20052;-71
2022/03/14 06:59:38;;;;;;;7.40;1.33;;;25.90;99.90;;;;;;4933232;29;20102;-69
2022/03/14 07:02:06;;;;;;;5.95;1.40;;;26.20;99.90;;;;;;4935522;29;20027;-66
2022/03/14 07:04:34;;;;;;;6.03;1.23;;;26.30;99.90;;;;;;4928057;29;20031;-68
2022/03/14 07:07:07;;;;;;;7.72;1.10;;;26.30;99.90;;;;;;4928602;29;20074;-73
2022/03/14 07:09:35;;;;;;;8.23;1.10;;;25.90;99.90;;;;;;4934702;29;20428;-69
2022/03/14 07:12:03;;;;;;;5.25;1.10;;;25.70;99.90;;;;;;4902008;29;20032;-77
2022/03/14 07:14:31;;;;;;;6.97;1.10;;;25.30;99.90;;;;;;4935108;29;20431;-73
2022/03/14 07:16:58;;;;;;;7.90;1.80;;;24.90;99.90;;;;;;4944703;28;20035;-71
2022/03/14 07:19:26;;;;;;;9.25;1.45;;;24.50;99.90;;;;;;4953348;29;20027;-70
2022/03/14 07:21:54;;;;;;;6.22;1.45;;;24.20;99.90;;;;;;4953853;29;20019;-70
2022/03/14 07:24:22;;;;;;;4.63;1.30;;;24.00;99.90;;;;;;4929277;29;20087;-72
2022/03/14 07:26:49;;;;;;;9.55;2.25;;;23.70;99.90;;;;;;4934203;29;20051;-69
2022/03/14 07:29:17;;;;;;;8.00;1.58;;;23.50;99.90;;;;;;4934633;29;20024;-73
2022/03/14 07:31:51;;;;;;;8.13;1.10;;;23.30;99.90;;;;;;4937359;29;20027;-70
2022/03/14 07:34:49;;;;;;;7.47;1.58;;;23.20;99.90;;;;;;4933136;29;20039;-73
2022/03/14 07:37:32;;;;;;;8.73;1.67;;;23.10;99.90;;;;;;4894028;29;20471;-75
2022/03/14 07:40:00;;;;;;;6.43;1.10;;;22.90;99.90;;;;;;4892750;29;20388;-70
2022/03/14 07:42:29;;;;;;;7.10;1.50;;;22.80;99.90;;;;;;4915553;29;20028;-68
2022/03/14 07:44:56;;;;;;;7.28;1.27;;;22.80;99.90;;;;;;4898273;29;20052;-75
2022/03/14 07:47:24;;;;;;;7.28;1.55;;;22.70;99.90;;;;;;4901117;29;20473;-76
2022/03/14 07:49:55;;;;;;;9.05;1.50;;;22.60;99.90;;;;;;4915471;29;20079;-68
2022/03/14 07:52:23;;;;;;;8.75;1.50;;;22.50;99.90;;;;;;4915367;29;20036;-71
2022/03/14 07:54:50;;;;;;;13.57;1.85;;;22.40;99.90;;;;;;4914968;29;20036;-72
2022/03/14 07:57:17;;;;;;;5.38;1.40;;;22.40;99.90;;;;;;4900332;29;20025;-68
2022/03/14 07:59:46;;;;;;;7.03;1.73;;;22.30;99.90;;;;;;4915419;29;20107;-72
2022/03/14 08:02:14;;;;;;;4.95;1.30;;;22.20;99.90;;;;;;4915378;29;20025;-71
2022/03/14 08:04:42;;;;;;;5.82;1.15;;;22.10;99.90;;;;;;4918853;29;20350;-72
2022/03/14 08:07:09;;;;;;;6.35;2.03;;;22.10;99.90;;;;;;4912541;29;20034;-70
2022/03/14 08:09:37;;;;;;;8.45;1.60;;;22.00;99.90;;;;;;4911465;29;20730;-71
2022/03/14 08:12:05;;;;;;;10.13;2.78;;;21.90;99.90;;;;;;4895976;29;20028;-72
2022/03/14 08:14:35;;;;;;;7.82;1.63;;;21.90;99.90;;;;;;4895753;29;20086;-71
2022/03/14 08:17:06;;;;;;;8.43;2.45;;;21.80;99.90;;;;;;4881069;29;20025;-69
2022/03/14 08:19:34;;;;;;;8.32;1.73;;;21.70;99.90;;;;;;4897524;29;20032;-67
2022/03/14 08:22:05;;;;;;;8.52;1.63;;;21.70;99.90;;;;;;4914497;29;20115;-70
2022/03/14 08:24:33;;;;;;;10.50;2.20;;;21.50;99.90;;;;;;4915136;29;20031;-65
2022/03/14 08:27:01;;;;;;;8.70;1.90;;;21.50;99.90;;;;;;4914452;29;20102;-69
2022/03/14 08:29:29;;;;;;;9.88;2.42;;;21.40;99.90;;;;;;4914925;29;20027;-68
2022/03/14 08:32:00;;;;;;;8.73;2.47;;;21.40;99.90;;;;;;4894207;29;20060;-74
2022/03/14 08:34:28;;;;;;;7.80;1.52;;;21.30;99.90;;;;;;4897854;29;20086;-70
2022/03/14 08:36:55;;;;;;;4.60;1.35;;;21.10;99.90;;;;;;4899018;29;20058;-74
2022/03/14 08:39:23;;;;;;;8.07;1.73;;;21.10;99.90;;;;;;4933948;29;20612;-71
2022/03/14 08:41:50;;;;;;;9.07;2.00;;;21.10;99.90;;;;;;4916857;29;20140;-72
2022/03/14 08:44:19;;;;;;;4.32;1.80;;;21.10;99.90;;;;;;4934408;29;20042;-73
2022/03/14 08:46:46;;;;;;;10.40;1.73;;;21.10;99.90;;;;;;4934430;29;20035;-69
2022/03/14 08:49:13;;;;;;;7.68;3.22;;;21.10;99.90;;;;;;4934015;29;20111;-70
2022/03/14 08:51:42;;;;;;;9.13;2.92;;;21.10;99.90;;;;;;4934443;29;20020;-70
2022/03/14 08:54:10;;;;;;;8.90;2.53;;;21.00;99.90;;;;;;4916460;29;20032;-74
2022/03/14 08:56:37;;;;;;;6.53;1.75;;;21.00;99.90;;;;;;4915505;29;20025;-74
2022/03/14 08:59:05;;;;;;;6.95;2.20;;;21.00;99.90;;;;;;4928970;29;20032;-75
2022/03/14 09:01:33;;;;;;;10.10;2.50;;;21.00;99.90;;;;;;4916239;29;20490;-74
2022/03/14 09:04:01;;;;;;;9.55;2.13;;;21.00;99.90;;;;;;4933397;29;20027;-73
2022/03/14 09:06:29;;;;;;;7.85;3.45;;;20.90;99.90;;;;;;4933462;29;20039;-72
2022/03/14 09:08:56;;;;;;;8.60;2.33;;;20.90;99.90;;;;;;4917490;29;20123;-73
2022/03/14 09:11:24;;;;;;;9.25;3.00;;;20.90;99.90;;;;;;4933425;29;20503;-72
2022/03/14 09:13:51;;;;;;;7.90;1.83;;;20.90;99.90;;;;;;4918859;29;20027;-72
2022/03/14 09:16:19;;;;;;;8.93;2.50;;;20.80;99.90;;;;;;4914383;29;20111;-69
2022/03/14 09:18:48;;;;;;;7.80;1.83;;;20.80;99.90;;;;;;4914249;29;20492;-72
2022/03/14 09:21:15;;;;;;;8.18;2.75;;;20.70;99.90;;;;;;4914338;29;20055;-71
2022/03/14 09:23:43;;;;;;;11.50;2.92;;;20.70;99.90;;;;;;4914230;29;20017;-68
2022/03/14 09:26:11;;;;;;;7.95;1.65;;;20.70;99.90;;;;;;4914500;29;20050;-69
2022/03/14 09:28:44;;;;;;;6.47;2.53;;;20.60;99.90;;;;;;4914737;29;20027;-69
2022/03/14 09:31:15;;;;;;;7.57;2.92;;;20.60;99.90;;;;;;4914990;29;20032;-67
2022/03/14 09:33:42;;;;;;;8.48;2.95;;;20.50;99.90;;;;;;4914522;29;20044;-73
2022/03/14 09:36:10;;;;;;;7.30;2.75;;;20.50;99.90;;;;;;4914937;29;20095;-70
2022/03/14 09:38:37;;;;;;;7.43;1.95;;;20.50;99.90;;;;;;4915073;29;20032;-69
2022/03/14 09:41:06;;;;;;;8.90;1.80;;;20.50;99.90;;;;;;4915894;29;20024;-71
2022/03/14 09:43:40;;;;;;;10.57;1.85;;;20.50;99.90;;;;;;4918178;29;20115;-76
2022/03/14 09:46:08;;;;;;;8.40;1.70;;;20.50;99.90;;;;;;4926843;29;20063;-69
2022/03/14 09:48:42;;;;;;;7.93;1.40;;;20.50;99.90;;;;;;4935679;29;20026;-69
2022/03/14 09:51:09;;;;;;;10.80;2.15;;;20.60;99.90;;;;;;4935942;29;20388;-73
2022/03/14 09:53:38;;;;;;;7.55;1.55;;;20.60;99.90;;;;;;4936344;29;20391;-73
2022/03/14 09:56:05;;;;;;;9.23;1.80;;;20.60;99.90;;;;;;4936143;29;20027;-74
2022/03/14 09:58:33;;;;;;;7.07;2.97;;;20.60;99.90;;;;;;4936583;29;20059;-71
2022/03/14 10:01:01;;;;;;;7.70;1.52;;;20.50;99.90;;;;;;4936821;29;20028;-73
2022/03/14 10:03:29;;;;;;;8.52;1.52;;;20.50;99.90;;;;;;4936891;29;20028;-73
2022/03/14 10:05:56;;;;;;;10.27;2.25;;;20.50;99.90;;;;;;4936999;29;20063;-70
2022/03/14 10:08:24;;;;;;;7.22;1.25;;;20.50;99.90;;;;;;4936738;29;20082;-72
2022/03/14 10:10:51;;;;;;;7.43;1.50;;;20.50;99.90;;;;;;4936581;29;20047;-67
2022/03/14 10:13:19;;;;;;;11.82;1.63;;;20.40;99.90;;;;;;4935846;29;20075;-74
2022/03/14 10:15:48;;;;;;;6.00;1.55;;;20.40;99.90;;;;;;4936696;29;20103;-67
2022/03/14 10:18:20;;;;;;;9.02;1.10;;;20.40;99.90;;;;;;4936227;29;20516;-72
2022/03/14 10:21:02;;;;;;;8.38;1.45;;;20.40;99.90;;;;;;4936410;29;20032;-72
2022/03/14 10:23:33;;;;;;;5.78;1.10;;;20.40;99.90;;;;;;4936405;29;20539;-68
2022/03/14 10:26:01;;;;;;;5.97;1.05;;;20.40;99.90;;;;;;4935965;29;20115;-70
2022/03/14 10:28:33;;;;;;;6.88;1.30;;;20.40;99.90;;;;;;4936759;29;20028;-71
2022/03/14 10:31:05;;;;;;;9.10;1.70;;;20.40;99.90;;;;;;4937018;29;20028;-70
2022/03/14 10:33:34;;;;;;;7.30;2.33;;;20.40;99.90;;;;;;4936740;29;20055;-71
2022/03/14 10:36:02;;;;;;;10.70;2.08;;;20.40;99.90;;;;;;4936777;29;20027;-70
2022/03/14 10:38:29;;;;;;;5.75;2.00;;;20.30;99.90;;;;;;4936424;29;20031;-73
2022/03/14 10:40:57;;;;;;;7.60;1.38;;;20.30;99.90;;;;;;4936221;29;20023;-73
2022/03/14 10:43:30;;;;;;;7.25;1.80;;;20.20;99.90;;;;;;4918976;29;20032;-72
2022/03/14 10:45:59;;;;;;;11.80;1.70;;;20.20;99.90;;;;;;4936118;29;20032;-70
2022/03/14 10:48:38;;;;;;;10.45;2.25;;;20.20;99.90;;;;;;4936038;29;20024;-71
2022/03/14 10:51:14;;;;;;;9.68;1.60;;;20.10;99.90;;;;;;4936277;29;20035;-70
2022/03/14 10:57:17;;;;;;;9.82;1.67;;;20.00;99.90;;;;;;4908691;29;20035;-72
2022/03/14 10:59:47;;;;;;;7.53;1.80;;;20.00;99.90;;;;;;4934650;29;20039;-69
2022/03/14 11:02:20;;;;;;;10.30;1.83;;;20.00;99.90;;;;;;4918984;29;20488;-72
2022/03/14 11:04:55;;;;;;;7.88;1.88;;;20.00;99.90;;;;;;4928320;29;20094;-73
2022/03/14 11:07:26;;;;;;;6.43;1.63;;;19.90;99.90;;;;;;4908919;29;20032;-75
2022/03/14 11:09:58;;;;;;;4.97;1.73;;;19.90;99.90;;;;;;4925720;29;20031;-73
2022/03/14 11:12:30;;;;;;;13.25;2.40;;;19.90;99.90;;;;;;4924755;29;20028;-72
2022/03/14 11:14:59;;;;;;;8.60;1.40;;;19.80;99.90;;;;;;4924593;29;20020;-73
2022/03/14 11:17:28;;;;;;;8.35;1.38;;;19.80;99.90;;;;;;4924442;29;20485;-69
2022/03/14 11:19:56;;;;;;;7.63;1.88;;;19.80;99.90;;;;;;4924284;29;20623;-68
2022/03/14 11:22:26;;;;;;;13.05;2.45;;;19.70;99.90;;;;;;4924188;29;20515;-71
2022/03/14 11:24:56;;;;;;;8.95;1.90;;;19.70;99.90;;;;;;4924290;29;20020;-70
2022/03/14 11:27:29;;;;;;;15.38;4.72;;;19.70;99.90;;;;;;4925334;29;20496;-72
2022/03/14 11:30:02;;;;;;;11.05;3.40;;;19.80;99.90;;;;;;4925525;29;20587;-71
2022/03/14 11:32:29;;;;;;;12.23;2.60;;;19.80;99.90;;;;;;4923904;29;20087;-74
2022/03/14 11:35:03;;;;;;;9.98;2.15;;;19.80;99.90;;;;;;4923404;29;20055;-70
2022/03/14 11:37:31;;;;;;;10.48;2.63;;;19.80;99.90;;;;;;4924677;29;20502;-70
2022/03/14 11:40:01;;;;;;;9.15;2.15;;;19.90;99.90;;;;;;4925709;29;20441;-72
2022/03/14 11:42:28;;;;;;;9.65;1.73;;;20.00;99.90;;;;;;4923657;29;20044;-69
2022/03/14 11:44:57;;;;;;;10.13;1.70;;;20.10;99.90;;;;;;4923481;29;20106;-71
2022/03/14 11:47:25;;;;;;;8.23;1.23;;;20.10;99.90;;;;;;4907609;29;20086;-70
2022/03/14 11:49:52;;;;;;;8.73;1.35;;;20.20;99.90;;;;;;4924752;29;20035;-69
2022/03/14 11:52:24;;;;;;;4.38;2.45;;;20.20;99.90;;;;;;4923485;29;20499;-70
2022/03/14 11:54:58;;;;;;;9.20;3.10;;;20.20;99.90;;;;;;4924281;29;20031;-73
2022/03/14 11:57:41;;;;;;;9.30;2.20;;;20.10;99.90;;;;;;4923030;29;20115;-73
2022/03/14 12:00:32;;;;;;;11.45;2.00;;;20.10;99.90;;;;;;4908241;29;20027;-73
2022/03/14 12:03:02;;;;;;;10.48;1.75;;;20.10;99.90;;;;;;4908108;29;20138;-71
2022/03/14 12:05:32;;;;;;;6.82;1.23;;;20.10;99.90;;;;;;4924448;29;20027;-70
2022/03/14 12:08:01;;;;;;;10.10;2.97;;;20.00;99.90;;;;;;4924840;29;20166;-73
2022/03/14 12:10:30;;;;;;;11.80;4.00;;;20.00;99.90;;;;;;4923576;29;20433;-71
2022/03/14 12:12:58;;;;;;;10.43;2.83;;;20.00;99.90;;;;;;4923145;29;20095;-68
2022/03/14 12:15:44;;;;;;;11.63;2.70;;;20.10;99.90;;;;;;4923596;29;20027;-70
2022/03/14 12:18:27;;;;;;;8.18;2.22;;;20.00;99.90;;;;;;4924263;29;20103;-69
2022/03/14 12:20:56;;;;;;;8.38;2.25;;;20.00;99.90;;;;;;4924765;29;20028;-70
2022/03/14 12:23:26;;;;;;;12.43;2.50;;;20.00;99.90;;;;;;4923179;29;20067;-69
2022/03/14 12:25:54;;;;;;;8.20;1.90;;;20.00;99.90;;;;;;4924317;29;20070;-72
2022/03/14 12:28:39;;;;;;;7.82;1.67;;;20.00;99.90;;;;;;4925038;29;20054;-71
2022/03/14 12:31:10;;;;;;;10.00;2.30;;;20.00;99.90;;;;;;4923293;29;20046;-68
2022/03/14 12:33:40;;;;;;;8.45;2.25;;;20.00;99.90;;;;;;4923365;29;20511;-69
2022/03/14 12:36:31;;;;;;;7.95;1.73;;;19.90;99.90;;;;;;4925405;29;20425;-69
2022/03/14 12:39:12;;;;;;;10.68;1.90;;;19.90;99.90;;;;;;4924639;29;20115;-71
2022/03/14 12:41:44;;;;;;;10.18;1.88;;;19.80;99.90;;;;;;4930863;29;20468;-72
2022/03/14 12:44:29;;;;;;;9.90;2.22;;;19.80;99.90;;;;;;4934492;29;20468;-72
2022/03/14 12:46:59;;;;;;;7.30;1.40;;;19.70;99.90;;;;;;4933910;29;20040;-70
2022/03/14 12:49:39;;;;;;;5.63;1.45;;;19.70;99.90;;;;;;4916855;29;20115;-70
2022/03/14 12:52:13;;;;;;;8.57;1.52;;;19.70;99.90;;;;;;4934243;29;20028;-71
2022/03/14 12:54:42;;;;;;;10.57;2.08;;;19.60;99.90;;;;;;4934402;29;20020;-74
2022/03/14 12:57:11;;;;;;;6.82;1.60;;;19.50;99.90;;;;;;4917251;29;20034;-71
2022/03/14 12:59:44;;;;;;;6.45;1.23;;;19.50;99.90;;;;;;4934781;29;20074;-69